Lulu Pass Weather Station

This weather station is located at 10020ft near Lulu Pass at the head of Fisher Creek. This data can be used with temperature and precipitation data from the Fisher Creek SNOTEL site. This data can be viewed directly on datagarrison.com

Elevation
10020ft
Jump to table bottom
Date Time Temperature
deg F
RH, % Wind Speed Wind Gust Wind Direction
12/07/22 02:00 8.4 90 12 27 SW - 223
12/07/22 01:00 8.5 90 14 27 SW - 222
12/07/22 00:00 8.3 90 13 28 SW - 213
12/06/22 23:00 8.4 90 15 34 SW - 219
12/06/22 22:00 8.3 89 18 35 SW - 218
12/06/22 21:00 8.0 89 18 39 SW - 209
12/06/22 20:00 7.9 89 20 41 SW - 216
12/06/22 19:00 8.0 89 19 33 SW - 218
12/06/22 18:00 8.2 90 21 39 SW - 216
12/06/22 17:00 8.3 90 22 39 SW - 219
12/06/22 16:00 8.6 90 22 42 SW - 218
12/06/22 15:00 8.8 90 20 34 SW - 215
12/06/22 14:00 9.3 90 17 34 SW - 223
12/06/22 13:00 9.7 90 14 34 SW - 225
12/06/22 12:00 9.7 90 15 31 SW - 215
12/06/22 11:00 9.2 90 18 38 SW - 216
12/06/22 10:00 7.9 90 19 37 SW - 215
12/06/22 09:00 8.0 89 13 35 SW - 222
12/06/22 08:00 7.2 89 12 28 SW - 234
12/06/22 07:00 6.5 89 11 25 SW - 246
12/06/22 06:00 6.4 89 10 22 SW - 243
12/06/22 05:00 6.4 89 10 22 SW - 229
12/06/22 04:00 6.6 89 10 26 SW - 229
12/06/22 03:00 6.8 89 15 33 SW - 225
12/06/22 02:00 7.1 89 15 31 W - 251
12/06/22 01:00 7.2 89 15 32 SW - 230
12/06/22 00:00 7.3 89 15 32 SW - 219
12/05/22 23:00 7.3 89 16 36 SW - 212
12/05/22 22:00 7.2 89 17 33 SW - 219
12/05/22 21:00 7.2 89 18 37 SW - 215
12/05/22 20:00 7.3 89 17 31 SW - 213
12/05/22 19:00 7.2 89 15 33 SW - 218
12/05/22 18:00 7.2 89 17 30 SW - 209
12/05/22 17:00 7.5 89 21 38 SW - 212
12/05/22 16:00 8.2 90 22 37 SW - 213
12/05/22 15:00 8.9 90 20 35 SW - 215
12/05/22 14:00 9.9 90 15 31 SW - 234
12/05/22 13:00 10.6 90 15 36 SW - 247
12/05/22 12:00 10.9 90 14 34 SW - 240
12/05/22 11:00 11.0 90 15 31 W - 248
12/05/22 10:00 11.2 90 15 37 W - 256
12/05/22 09:00 10.8 91 16 31 W - 265
12/05/22 08:00 11.0 91 12 30 W - 256
12/05/22 07:00 11.6 91 14 31 W - 254
12/05/22 06:00 12.6 91 13 27 W - 261
12/05/22 05:00 13.3 91 8 16 W - 254
12/05/22 04:00 13.5 91 8 19 SW - 227
12/05/22 03:00 13.8 91 16 36 SW - 218
12/05/22 02:00 14.9 92 12 28 SW - 215
12/05/22 01:00 16.6 92 7 16 SW - 212